sensor_id;sensor_type;location;lat;lon;timestamp;P1;P2;P0
40947;PMS5003;49382;-25.924;28.194;2022-07-22T00:02:13;76;71;
40947;PMS5003;49382;-25.924;28.194;2022-07-22T00:04:39;80;80;
40947;PMS5003;49382;-25.924;28.194;2022-07-22T00:07:04;65;64;
40947;PMS5003;49382;-25.924;28.194;2022-07-22T00:09:30;73;72;
40947;PMS5003;49382;-25.924;28.194;2022-07-22T00:11:55;71;70;
40947;PMS5003;49382;-25.924;28.194;2022-07-22T00:14:21;78;78;
40947;PMS5003;49382;-25.924;28.194;2022-07-22T00:16:46;117;116;
40947;PMS5003;49382;-25.924;28.194;2022-07-22T00:19:12;94;91;
40947;PMS5003;49382;-25.924;28.194;2022-07-22T00:21:37;92;91;
40947;PMS5003;49382;-25.924;28.194;2022-07-22T00:24:03;103;103;
40947;PMS5003;49382;-25.924;28.194;2022-07-22T00:26:28;108;106;
40947;PMS5003;49382;-25.924;28.194;2022-07-22T00:28:53;97;95;
40947;PMS5003;49382;-25.924;28.194;2022-07-22T00:31:19;108;106;
40947;PMS5003;49382;-25.924;28.194;2022-07-22T00:33:44;118;116;
40947;PMS5003;49382;-25.924;28.194;2022-07-22T00:36:10;120;118;
40947;PMS5003;49382;-25.924;28.194;2022-07-22T00:38:35;116;114;
40947;PMS5003;49382;-25.924;28.194;2022-07-22T00:41:01;113;112;
40947;PMS5003;49382;-25.924;28.194;2022-07-22T00:43:26;119;116;
40947;PMS5003;49382;-25.924;28.194;2022-07-22T00:45:51;115;113;
40947;PMS5003;49382;-25.924;28.194;2022-07-22T00:48:16;133;127;
40947;PMS5003;49382;-25.924;28.194;2022-07-22T00:50:42;135;128;
40947;PMS5003;49382;-25.924;28.194;2022-07-22T00:53:07;132;128;
40947;PMS5003;49382;-25.924;28.194;2022-07-22T00:55:32;126;124;
40947;PMS5003;49382;-25.924;28.194;2022-07-22T00:57:58;118;114;
40947;PMS5003;49382;-25.924;28.194;2022-07-22T01:00:23;117;116;
40947;PMS5003;49382;-25.924;28.194;2022-07-22T01:02:49;115;113;
40947;PMS5003;49382;-25.924;28.194;2022-07-22T01:05:14;105;105;
40947;PMS5003;49382;-25.924;28.194;2022-07-22T01:07:40;92;91;
40947;PMS5003;49382;-25.924;28.194;2022-07-22T01:10:06;78;77;
40947;PMS5003;49382;-25.924;28.194;2022-07-22T01:12:30;86;86;
40947;PMS5003;49382;-25.924;28.194;2022-07-22T01:14:56;80;80;
40947;PMS5003;49382;-25.924;28.194;2022-07-22T01:17:22;89;88;
40947;PMS5003;49382;-25.924;28.194;2022-07-22T01:19:47;71;71;
40947;PMS5003;49382;-25.924;28.194;2022-07-22T01:22:13;73;72;
40947;PMS5003;49382;-25.924;28.194;2022-07-22T01:24:38;77;75;
40947;PMS5003;49382;-25.924;28.194;2022-07-22T01:27:03;84;82;
40947;PMS5003;49382;-25.924;28.194;2022-07-22T01:29:29;97;96;
40947;PMS5003;49382;-25.924;28.194;2022-07-22T01:31:54;91;89;
40947;PMS5003;49382;-25.924;28.194;2022-07-22T01:34:21;86;79;
40947;PMS5003;49382;-25.924;28.194;2022-07-22T01:36:45;95;91;
40947;PMS5003;49382;-25.924;28.194;2022-07-22T01:39:10;98;94;
40947;PMS5003;49382;-25.924;28.194;2022-07-22T01:41:36;80;79;
40947;PMS5003;49382;-25.924;28.194;2022-07-22T01:44:01;74;73;
40947;PMS5003;49382;-25.924;28.194;2022-07-22T01:46:27;62;62;
40947;PMS5003;49382;-25.924;28.194;2022-07-22T01:48:52;67;65;
40947;PMS5003;49382;-25.924;28.194;2022-07-22T01:51:17;71;70;
40947;PMS5003;49382;-25.924;28.194;2022-07-22T01:53:43;67;66;
40947;PMS5003;49382;-25.924;28.194;2022-07-22T01:56:08;77;76;
40947;PMS5003;49382;-25.924;28.194;2022-07-22T01:58:34;77;75;
40947;PMS5003;49382;-25.924;28.194;2022-07-22T02:01:00;74;73;
40947;PMS5003;49382;-25.924;28.194;2022-07-22T02:03:25;72;70;
40947;PMS5003;49382;-25.924;28.194;2022-07-22T02:05:50;66;65;
40947;PMS5003;49382;-25.924;28.194;2022-07-22T02:08:16;67;66;
40947;PMS5003;49382;-25.924;28.194;2022-07-22T02:10:41;74;74;
40947;PMS5003;49382;-25.924;28.194;2022-07-22T02:13:06;76;74;
40947;PMS5003;49382;-25.924;28.194;2022-07-22T02:15:32;72;72;
40947;PMS5003;49382;-25.924;28.194;2022-07-22T02:17:58;78;77;
40947;PMS5003;49382;-25.924;28.194;2022-07-22T02:20:23;77;76;
40947;PMS5003;49382;-25.924;28.194;2022-07-22T02:22:48;75;75;
40947;PMS5003;49382;-25.924;28.194;2022-07-22T02:25:14;79;79;
40947;PMS5003;49382;-25.924;28.194;2022-07-22T02:27:40;85;82;
40947;PMS5003;49382;-25.924;28.194;2022-07-22T02:30:05;78;77;
40947;PMS5003;49382;-25.924;28.194;2022-07-22T02:32:30;78;75;
40947;PMS5003;49382;-25.924;28.194;2022-07-22T02:34:55;62;61;
40947;PMS5003;49382;-25.924;28.194;2022-07-22T02:37:20;64;63;
40947;PMS5003;49382;-25.924;28.194;2022-07-22T02:39:46;67;67;
40947;PMS5003;49382;-25.924;28.194;2022-07-22T02:42:12;68;66;
40947;PMS5003;49382;-25.924;28.194;2022-07-22T02:44:37;61;58;
40947;PMS5003;49382;-25.924;28.194;2022-07-22T02:47:02;64;62;
40947;PMS5003;49382;-25.924;28.194;2022-07-22T02:49:27;62;61;
40947;PMS5003;49382;-25.924;28.194;2022-07-22T02:51:52;60;59;
40947;PMS5003;49382;-25.924;28.194;2022-07-22T02:54:18;70;67;
40947;PMS5003;49382;-25.924;28.194;2022-07-22T02:56:43;70;69;
40947;PMS5003;49382;-25.924;28.194;2022-07-22T02:59:08;68;66;
40947;PMS5003;49382;-25.924;28.194;2022-07-22T03:01:33;68;67;
40947;PMS5003;49382;-25.924;28.194;2022-07-22T03:03:59;74;72;
40947;PMS5003;49382;-25.924;28.194;2022-07-22T03:06:24;78;76;
40947;PMS5003;49382;-25.924;28.194;2022-07-22T03:08:50;78;76;
40947;PMS5003;49382;-25.924;28.194;2022-07-22T03:11:15;68;66;
40947;PMS5003;49382;-25.924;28.194;2022-07-22T03:13:41;75;75;
40947;PMS5003;49382;-25.924;28.194;2022-07-22T03:16:06;70;68;
40947;PMS5003;49382;-25.924;28.194;2022-07-22T03:18:31;70;69;
40947;PMS5003;49382;-25.924;28.194;2022-07-22T03:20:56;75;75;
40947;PMS5003;49382;-25.924;28.194;2022-07-22T03:23:22;71;68;
40947;PMS5003;49382;-25.924;28.194;2022-07-22T03:25:48;69;68;
40947;PMS5003;49382;-25.924;28.194;2022-07-22T03:28:13;65;65;
40947;PMS5003;49382;-25.924;28.194;2022-07-22T03:30:39;63;62;
40947;PMS5003;49382;-25.924;28.194;2022-07-22T03:33:05;66;64;
40947;PMS5003;49382;-25.924;28.194;2022-07-22T03:35:30;69;68;
40947;PMS5003;49382;-25.924;28.194;2022-07-22T03:37:56;63;62;
40947;PMS5003;49382;-25.924;28.194;2022-07-22T03:40:22;68;65;
40947;PMS5003;49382;-25.924;28.194;2022-07-22T03:42:47;71;71;
40947;PMS5003;49382;-25.924;28.194;2022-07-22T03:45:13;67;67;
40947;PMS5003;49382;-25.924;28.194;2022-07-22T03:47:38;80;78;
40947;PMS5003;49382;-25.924;28.194;2022-07-22T03:50:04;78;78;
40947;PMS5003;49382;-25.924;28.194;2022-07-22T03:52:29;74;73;
40947;PMS5003;49382;-25.924;28.194;2022-07-22T03:54:55;78;77;
40947;PMS5003;49382;-25.924;28.194;2022-07-22T03:57:20;80;78;
40947;PMS5003;49382;-25.924;28.194;2022-07-22T03:59:46;64;62;
40947;PMS5003;49382;-25.924;28.194;2022-07-22T04:02:11;69;67;
40947;PMS5003;49382;-25.924;28.194;2022-07-22T04:04:37;60;60;
40947;PMS5003;49382;-25.924;28.194;2022-07-22T04:07:02;73;70;
40947;PMS5003;49382;-25.924;28.194;2022-07-22T04:09:27;73;69;
40947;PMS5003;49382;-25.924;28.194;2022-07-22T04:11:53;67;64;
40947;PMS5003;49382;-25.924;28.194;2022-07-22T04:14:19;64;62;
40947;PMS5003;49382;-25.924;28.194;2022-07-22T04:16:44;79;77;
40947;PMS5003;49382;-25.924;28.194;2022-07-22T04:19:09;81;79;
40947;PMS5003;49382;-25.924;28.194;2022-07-22T04:21:34;91;87;
40947;PMS5003;49382;-25.924;28.194;2022-07-22T04:24:00;81;80;
40947;PMS5003;49382;-25.924;28.194;2022-07-22T04:26:26;63;63;
40947;PMS5003;49382;-25.924;28.194;2022-07-22T04:28:52;67;65;
40947;PMS5003;49382;-25.924;28.194;2022-07-22T04:31:17;59;58;
40947;PMS5003;49382;-25.924;28.194;2022-07-22T04:33:42;63;62;
40947;PMS5003;49382;-25.924;28.194;2022-07-22T04:36:08;55;54;
40947;PMS5003;49382;-25.924;28.194;2022-07-22T04:38:33;55;54;
40947;PMS5003;49382;-25.924;28.194;2022-07-22T04:40:59;67;66;
40947;PMS5003;49382;-25.924;28.194;2022-07-22T04:43:24;60;60;
40947;PMS5003;49382;-25.924;28.194;2022-07-22T04:45:50;65;64;
40947;PMS5003;49382;-25.924;28.194;2022-07-22T04:48:15;57;57;
40947;PMS5003;49382;-25.924;28.194;2022-07-22T04:50:40;60;57;
40947;PMS5003;49382;-25.924;28.194;2022-07-22T04:53:06;63;61;
40947;PMS5003;49382;-25.924;28.194;2022-07-22T04:55:31;57;56;
40947;PMS5003;49382;-25.924;28.194;2022-07-22T04:57:57;68;68;
40947;PMS5003;49382;-25.924;28.194;2022-07-22T05:00:23;74;73;
40947;PMS5003;49382;-25.924;28.194;2022-07-22T05:02:48;82;79;
40947;PMS5003;49382;-25.924;28.194;2022-07-22T05:05:13;67;67;
40947;PMS5003;49382;-25.924;28.194;2022-07-22T05:07:38;78;76;
40947;PMS5003;49382;-25.924;28.194;2022-07-22T05:10:05;70;69;
40947;PMS5003;49382;-25.924;28.194;2022-07-22T05:12:30;80;78;
40947;PMS5003;49382;-25.924;28.194;2022-07-22T05:14:55;78;78;
40947;PMS5003;49382;-25.924;28.194;2022-07-22T05:17:21;84;84;
40947;PMS5003;49382;-25.924;28.194;2022-07-22T05:19:47;83;82;
40947;PMS5003;49382;-25.924;28.194;2022-07-22T05:22:12;88;87;
40947;PMS5003;49382;-25.924;28.194;2022-07-22T05:24:38;104;101;
40947;PMS5003;49382;-25.924;28.194;2022-07-22T05:27:03;101;101;
40947;PMS5003;49382;-25.924;28.194;2022-07-22T05:29:28;94;93;
40947;PMS5003;49382;-25.924;28.194;2022-07-22T05:31:54;103;101;
40947;PMS5003;49382;-25.924;28.194;2022-07-22T05:34:19;124;124;
40947;PMS5003;49382;-25.924;28.194;2022-07-22T05:36:45;92;91;
40947;PMS5003;49382;-25.924;28.194;2022-07-22T05:39:10;115;111;
40947;PMS5003;49382;-25.924;28.194;2022-07-22T05:41:35;94;93;
40947;PMS5003;49382;-25.924;28.194;2022-07-22T05:44:01;95;92;
40947;PMS5003;49382;-25.924;28.194;2022-07-22T05:46:26;137;131;
40947;PMS5003;49382;-25.924;28.194;2022-07-22T05:48:51;91;90;
40947;PMS5003;49382;-25.924;28.194;2022-07-22T05:51:17;88;87;
40947;PMS5003;49382;-25.924;28.194;2022-07-22T05:53:43;108;104;
40947;PMS5003;49382;-25.924;28.194;2022-07-22T05:56:08;93;90;
40947;PMS5003;49382;-25.924;28.194;2022-07-22T05:58:33;95;95;
40947;PMS5003;49382;-25.924;28.194;2022-07-22T06:00:59;96;95;
40947;PMS5003;49382;-25.924;28.194;2022-07-22T06:03:24;100;99;
40947;PMS5003;49382;-25.924;28.194;2022-07-22T06:05:50;101;98;
40947;PMS5003;49382;-25.924;28.194;2022-07-22T06:08:15;103;101;
40947;PMS5003;49382;-25.924;28.194;2022-07-22T06:10:41;105;104;
40947;PMS5003;49382;-25.924;28.194;2022-07-22T06:13:06;107;106;
40947;PMS5003;49382;-25.924;28.194;2022-07-22T06:15:31;105;105;
40947;PMS5003;49382;-25.924;28.194;2022-07-22T06:17:57;109;106;
40947;PMS5003;49382;-25.924;28.194;2022-07-22T06:20:22;101;98;
40947;PMS5003;49382;-25.924;28.194;2022-07-22T06:22:48;95;92;
40947;PMS5003;49382;-25.924;28.194;2022-07-22T06:25:13;91;87;
40947;PMS5003;49382;-25.924;28.194;2022-07-22T06:27:38;92;90;
40947;PMS5003;49382;-25.924;28.194;2022-07-22T06:30:05;84;82;
40947;PMS5003;49382;-25.924;28.194;2022-07-22T06:32:30;89;85;
40947;PMS5003;49382;-25.924;28.194;2022-07-22T06:34:55;97;94;
40947;PMS5003;49382;-25.924;28.194;2022-07-22T06:37:20;90;88;
40947;PMS5003;49382;-25.924;28.194;2022-07-22T06:39:46;88;86;
40947;PMS5003;49382;-25.924;28.194;2022-07-22T06:42:11;86;85;
40947;PMS5003;49382;-25.924;28.194;2022-07-22T06:44:37;91;90;
40947;PMS5003;49382;-25.924;28.194;2022-07-22T06:47:02;97;93;
40947;PMS5003;49382;-25.924;28.194;2022-07-22T06:49:28;103;97;
40947;PMS5003;49382;-25.924;28.194;2022-07-22T06:51:53;96;95;
40947;PMS5003;49382;-25.924;28.194;2022-07-22T06:54:18;99;97;
40947;PMS5003;49382;-25.924;28.194;2022-07-22T06:56:43;100;96;
40947;PMS5003;49382;-25.924;28.194;2022-07-22T06:59:09;103;100;
40947;PMS5003;49382;-25.924;28.194;2022-07-22T07:01:34;106;103;
40947;PMS5003;49382;-25.924;28.194;2022-07-22T07:03:59;103;100;
40947;PMS5003;49382;-25.924;28.194;2022-07-22T07:06:24;98;96;
40947;PMS5003;49382;-25.924;28.194;2022-07-22T07:08:50;99;98;
40947;PMS5003;49382;-25.924;28.194;2022-07-22T07:11:16;90;88;
40947;PMS5003;49382;-25.924;28.194;2022-07-22T07:13:41;87;86;
40947;PMS5003;49382;-25.924;28.194;2022-07-22T07:16:07;83;82;
40947;PMS5003;49382;-25.924;28.194;2022-07-22T07:18:32;86;84;
40947;PMS5003;49382;-25.924;28.194;2022-07-22T07:20:58;84;83;
40947;PMS5003;49382;-25.924;28.194;2022-07-22T07:23:24;76;74;
40947;PMS5003;49382;-25.924;28.194;2022-07-22T07:25:49;69;69;
40947;PMS5003;49382;-25.924;28.194;2022-07-22T07:28:15;58;58;
40947;PMS5003;49382;-25.924;28.194;2022-07-22T07:30:40;53;53;
40947;PMS5003;49382;-25.924;28.194;2022-07-22T07:33:05;56;55;
40947;PMS5003;49382;-25.924;28.194;2022-07-22T07:35:31;53;51;
40947;PMS5003;49382;-25.924;28.194;2022-07-22T07:37:57;47;46;
40947;PMS5003;49382;-25.924;28.194;2022-07-22T07:40:22;40;40;
40947;PMS5003;49382;-25.924;28.194;2022-07-22T07:42:47;29;29;
40947;PMS5003;49382;-25.924;28.194;2022-07-22T07:45:13;35;33;
40947;PMS5003;49382;-25.924;28.194;2022-07-22T07:47:39;29;29;
40947;PMS5003;49382;-25.924;28.194;2022-07-22T07:50:05;20;20;
40947;PMS5003;49382;-25.924;28.194;2022-07-22T07:52:30;17;17;
40947;PMS5003;49382;-25.924;28.194;2022-07-22T07:54:56;18;18;
40947;PMS5003;49382;-25.924;28.194;2022-07-22T07:57:21;19;19;
40947;PMS5003;49382;-25.924;28.194;2022-07-22T07:59:47;19;19;
40947;PMS5003;49382;-25.924;28.194;2022-07-22T08:02:13;17;17;
40947;PMS5003;49382;-25.924;28.194;2022-07-22T08:04:38;11;11;
40947;PMS5003;49382;-25.924;28.194;2022-07-22T08:07:04;9;9;
40947;PMS5003;49382;-25.924;28.194;2022-07-22T08:09:30;9;9;
40947;PMS5003;49382;-25.924;28.194;2022-07-22T08:11:55;9;9;
40947;PMS5003;49382;-25.924;28.194;2022-07-22T08:14:21;9;9;
40947;PMS5003;49382;-25.924;28.194;2022-07-22T08:16:47;9;9;
40947;PMS5003;49382;-25.924;28.194;2022-07-22T08:19:12;8;8;
40947;PMS5003;49382;-25.924;28.194;2022-07-22T08:21:38;8;8;
40947;PMS5003;49382;-25.924;28.194;2022-07-22T08:24:04;11;11;
40947;PMS5003;49382;-25.924;28.194;2022-07-22T08:26:29;9;8;
40947;PMS5003;49382;-25.924;28.194;2022-07-22T08:28:55;10;9;
40947;PMS5003;49382;-25.924;28.194;2022-07-22T08:31:21;8;8;
40947;PMS5003;49382;-25.924;28.194;2022-07-22T08:33:46;8;7;
40947;PMS5003;49382;-25.924;28.194;2022-07-22T08:36:12;7;7;
40947;PMS5003;49382;-25.924;28.194;2022-07-22T08:38:37;8;7;
40947;PMS5003;49382;-25.924;28.194;2022-07-22T08:41:03;9;8;
40947;PMS5003;49382;-25.924;28.194;2022-07-22T08:43:29;7;7;
40947;PMS5003;49382;-25.924;28.194;2022-07-22T08:45:54;8;8;
40947;PMS5003;49382;-25.924;28.194;2022-07-22T08:48:20;7;6;
40947;PMS5003;49382;-25.924;28.194;2022-07-22T08:50:45;8;8;
40947;PMS5003;49382;-25.924;28.194;2022-07-22T08:53:11;6;6;
40947;PMS5003;49382;-25.924;28.194;2022-07-22T08:55:40;9;9;
40947;PMS5003;49382;-25.924;28.194;2022-07-22T08:58:02;7;7;
40947;PMS5003;49382;-25.924;28.194;2022-07-22T09:00:28;8;8;
40947;PMS5003;49382;-25.924;28.194;2022-07-22T09:02:53;7;7;
40947;PMS5003;49382;-25.924;28.194;2022-07-22T09:05:19;6;6;
40947;PMS5003;49382;-25.924;28.194;2022-07-22T09:07:45;7;7;
40947;PMS5003;49382;-25.924;28.194;2022-07-22T09:10:11;7;7;
40947;PMS5003;49382;-25.924;28.194;2022-07-22T09:12:38;8;8;
40947;PMS5003;49382;-25.924;28.194;2022-07-22T09:15:03;7;7;
40947;PMS5003;49382;-25.924;28.194;2022-07-22T09:17:28;7;7;
40947;PMS5003;49382;-25.924;28.194;2022-07-22T09:19:53;9;9;
40947;PMS5003;49382;-25.924;28.194;2022-07-22T09:24:44;9;9;
40947;PMS5003;49382;-25.924;28.194;2022-07-22T09:27:10;11;11;
40947;PMS5003;49382;-25.924;28.194;2022-07-22T09:29:35;11;11;
40947;PMS5003;49382;-25.924;28.194;2022-07-22T09:32:01;15;15;
40947;PMS5003;49382;-25.924;28.194;2022-07-22T09:34:27;12;12;
40947;PMS5003;49382;-25.924;28.194;2022-07-22T09:36:54;14;13;
40947;PMS5003;49382;-25.924;28.194;2022-07-22T09:46:35;40;40;
40947;PMS5003;49382;-25.924;28.194;2022-07-22T09:49:00;40;40;
40947;PMS5003;49382;-25.924;28.194;2022-07-22T09:51:26;37;37;
40947;PMS5003;49382;-25.924;28.194;2022-07-22T09:53:51;15;15;
40947;PMS5003;49382;-25.924;28.194;2022-07-22T09:56:17;16;15;
40947;PMS5003;49382;-25.924;28.194;2022-07-22T09:58:42;14;14;
40947;PMS5003;49382;-25.924;28.194;2022-07-22T10:01:08;26;25;
40947;PMS5003;49382;-25.924;28.194;2022-07-22T10:03:34;22;21;
40947;PMS5003;49382;-25.924;28.194;2022-07-22T10:05:59;19;18;
40947;PMS5003;49382;-25.924;28.194;2022-07-22T10:08:25;15;15;
40947;PMS5003;49382;-25.924;28.194;2022-07-22T10:10:50;15;15;
40947;PMS5003;49382;-25.924;28.194;2022-07-22T10:13:16;15;15;
40947;PMS5003;49382;-25.924;28.194;2022-07-22T10:15:41;15;14;
40947;PMS5003;49382;-25.924;28.194;2022-07-22T10:18:07;13;13;
40947;PMS5003;49382;-25.924;28.194;2022-07-22T10:20:33;11;11;
40947;PMS5003;49382;-25.924;28.194;2022-07-22T10:22:59;10;10;
40947;PMS5003;49382;-25.924;28.194;2022-07-22T10:25:25;9;9;
40947;PMS5003;49382;-25.924;28.194;2022-07-22T10:27:51;12;11;
40947;PMS5003;49382;-25.924;28.194;2022-07-22T10:30:16;10;10;
40947;PMS5003;49382;-25.924;28.194;2022-07-22T10:32:42;10;10;
40947;PMS5003;49382;-25.924;28.194;2022-07-22T10:37:36;13;13;
40947;PMS5003;49382;-25.924;28.194;2022-07-22T10:42:25;15;15;
40947;PMS5003;49382;-25.924;28.194;2022-07-22T10:44:50;12;12;
40947;PMS5003;49382;-25.924;28.194;2022-07-22T10:47:16;15;15;
40947;PMS5003;49382;-25.924;28.194;2022-07-22T10:49:41;14;14;
40947;PMS5003;49382;-25.924;28.194;2022-07-22T10:52:11;13;13;
40947;PMS5003;49382;-25.924;28.194;2022-07-22T10:54:34;13;13;
40947;PMS5003;49382;-25.924;28.194;2022-07-22T10:56:59;14;14;
40947;PMS5003;49382;-25.924;28.194;2022-07-22T10:59:23;14;14;
40947;PMS5003;49382;-25.924;28.194;2022-07-22T11:01:50;12;12;
40947;PMS5003;49382;-25.924;28.194;2022-07-22T11:04:15;12;11;
40947;PMS5003;49382;-25.924;28.194;2022-07-22T11:06:41;12;11;
40947;PMS5003;49382;-25.924;28.194;2022-07-22T11:09:07;13;13;
40947;PMS5003;49382;-25.924;28.194;2022-07-22T11:11:33;11;11;
40947;PMS5003;49382;-25.924;28.194;2022-07-22T11:13:57;10;10;
40947;PMS5003;49382;-25.924;28.194;2022-07-22T11:16:24;9;9;
40947;PMS5003;49382;-25.924;28.194;2022-07-22T11:18:50;12;12;
40947;PMS5003;49382;-25.924;28.194;2022-07-22T11:21:16;10;9;
40947;PMS5003;49382;-25.924;28.194;2022-07-22T11:23:40;10;10;
40947;PMS5003;49382;-25.924;28.194;2022-07-22T11:26:05;10;10;
40947;PMS5003;49382;-25.924;28.194;2022-07-22T11:28:30;9;9;
40947;PMS5003;49382;-25.924;28.194;2022-07-22T11:33:21;7;7;
40947;PMS5003;49382;-25.924;28.194;2022-07-22T11:38:12;12;12;
40947;PMS5003;49382;-25.924;28.194;2022-07-22T11:40:37;15;14;
40947;PMS5003;49382;-25.924;28.194;2022-07-22T11:43:03;14;13;
40947;PMS5003;49382;-25.924;28.194;2022-07-22T11:45:28;12;12;
40947;PMS5003;49382;-25.924;28.194;2022-07-22T11:47:53;14;14;
40947;PMS5003;49382;-25.924;28.194;2022-07-22T11:55:14;13;13;
40947;PMS5003;49382;-25.924;28.194;2022-07-22T12:00:06;12;12;
40947;PMS5003;49382;-25.924;28.194;2022-07-22T12:02:28;11;11;
40947;PMS5003;49382;-25.924;28.194;2022-07-22T12:04:54;13;13;
40947;PMS5003;49382;-25.924;28.194;2022-07-22T12:07:19;16;15;
40947;PMS5003;49382;-25.924;28.194;2022-07-22T12:09:45;11;11;
40947;PMS5003;49382;-25.924;28.194;2022-07-22T12:12:10;11;10;
40947;PMS5003;49382;-25.924;28.194;2022-07-22T12:14:36;10;10;
40947;PMS5003;49382;-25.924;28.194;2022-07-22T12:17:03;12;11;
40947;PMS5003;49382;-25.924;28.194;2022-07-22T12:19:28;7;7;
40947;PMS5003;49382;-25.924;28.194;2022-07-22T12:21:54;10;10;
40947;PMS5003;49382;-25.924;28.194;2022-07-22T12:26:46;10;9;
40947;PMS5003;49382;-25.924;28.194;2022-07-22T12:29:14;10;10;
40947;PMS5003;49382;-25.924;28.194;2022-07-22T12:34:01;12;12;
40947;PMS5003;49382;-25.924;28.194;2022-07-22T12:38:51;17;17;
40947;PMS5003;49382;-25.924;28.194;2022-07-22T12:43:42;14;14;
40947;PMS5003;49382;-25.924;28.194;2022-07-22T12:46:07;13;13;
40947;PMS5003;49382;-25.924;28.194;2022-07-22T12:48:33;14;14;
40947;PMS5003;49382;-25.924;28.194;2022-07-22T12:50:58;13;13;
40947;PMS5003;49382;-25.924;28.194;2022-07-22T12:53:24;10;10;
40947;PMS5003;49382;-25.924;28.194;2022-07-22T12:55:50;10;10;
40947;PMS5003;49382;-25.924;28.194;2022-07-22T12:58:16;11;11;
40947;PMS5003;49382;-25.924;28.194;2022-07-22T13:00:41;14;14;
40947;PMS5003;49382;-25.924;28.194;2022-07-22T13:03:05;14;14;
40947;PMS5003;49382;-25.924;28.194;2022-07-22T13:05:30;13;13;
40947;PMS5003;49382;-25.924;28.194;2022-07-22T13:07:55;14;13;
40947;PMS5003;49382;-25.924;28.194;2022-07-22T13:10:20;13;13;
40947;PMS5003;49382;-25.924;28.194;2022-07-22T13:12:46;13;13;
40947;PMS5003;49382;-25.924;28.194;2022-07-22T13:15:12;13;13;
40947;PMS5003;49382;-25.924;28.194;2022-07-22T13:17:37;21;21;
40947;PMS5003;49382;-25.924;28.194;2022-07-22T13:20:02;16;16;
40947;PMS5003;49382;-25.924;28.194;2022-07-22T13:22:28;14;14;
40947;PMS5003;49382;-25.924;28.194;2022-07-22T13:24:54;12;12;
40947;PMS5003;49382;-25.924;28.194;2022-07-22T13:27:19;12;12;
40947;PMS5003;49382;-25.924;28.194;2022-07-22T13:29:44;9;9;
40947;PMS5003;49382;-25.924;28.194;2022-07-22T13:32:10;9;9;
40947;PMS5003;49382;-25.924;28.194;2022-07-22T13:34:35;9;9;
40947;PMS5003;49382;-25.924;28.194;2022-07-22T13:37:01;9;8;
40947;PMS5003;49382;-25.924;28.194;2022-07-22T13:39:26;8;8;
40947;PMS5003;49382;-25.924;28.194;2022-07-22T13:41:52;8;8;
40947;PMS5003;49382;-25.924;28.194;2022-07-22T13:44:18;9;9;
40947;PMS5003;49382;-25.924;28.194;2022-07-22T13:46:43;9;9;
40947;PMS5003;49382;-25.924;28.194;2022-07-22T13:49:09;7;7;
40947;PMS5003;49382;-25.924;28.194;2022-07-22T13:51:33;9;9;
40947;PMS5003;49382;-25.924;28.194;2022-07-22T13:53:59;10;8;
40947;PMS5003;49382;-25.924;28.194;2022-07-22T13:56:24;10;10;
40947;PMS5003;49382;-25.924;28.194;2022-07-22T13:58:49;10;9;
40947;PMS5003;49382;-25.924;28.194;2022-07-22T14:01:14;12;11;
40947;PMS5003;49382;-25.924;28.194;2022-07-22T14:03:40;9;9;
40947;PMS5003;49382;-25.924;28.194;2022-07-22T14:06:05;9;9;
40947;PMS5003;49382;-25.924;28.194;2022-07-22T14:08:30;8;8;
40947;PMS5003;49382;-25.924;28.194;2022-07-22T14:10:54;10;9;
40947;PMS5003;49382;-25.924;28.194;2022-07-22T14:13:20;9;9;
40947;PMS5003;49382;-25.924;28.194;2022-07-22T14:15:45;10;9;
40947;PMS5003;49382;-25.924;28.194;2022-07-22T14:18:10;9;8;
40947;PMS5003;49382;-25.924;28.194;2022-07-22T14:20:35;8;8;
40947;PMS5003;49382;-25.924;28.194;2022-07-22T14:23:00;9;9;
40947;PMS5003;49382;-25.924;28.194;2022-07-22T14:25:25;9;9;
40947;PMS5003;49382;-25.924;28.194;2022-07-22T14:27:51;10;10;
40947;PMS5003;49382;-25.924;28.194;2022-07-22T14:30:16;10;10;
40947;PMS5003;49382;-25.924;28.194;2022-07-22T14:32:41;10;10;
40947;PMS5003;49382;-25.924;28.194;2022-07-22T14:35:07;10;10;
40947;PMS5003;49382;-25.924;28.194;2022-07-22T14:37:31;11;11;
40947;PMS5003;49382;-25.924;28.194;2022-07-22T14:39:56;8;8;
40947;PMS5003;49382;-25.924;28.194;2022-07-22T14:42:22;9;9;
40947;PMS5003;49382;-25.924;28.194;2022-07-22T14:44:47;11;10;
40947;PMS5003;49382;-25.924;28.194;2022-07-22T14:47:11;9;9;
40947;PMS5003;49382;-25.924;28.194;2022-07-22T14:49:36;9;8;
40947;PMS5003;49382;-25.924;28.194;2022-07-22T14:52:02;10;10;
40947;PMS5003;49382;-25.924;28.194;2022-07-22T14:54:28;8;8;
40947;PMS5003;49382;-25.924;28.194;2022-07-22T14:56:54;10;10;
40947;PMS5003;49382;-25.924;28.194;2022-07-22T14:59:19;12;12;
40947;PMS5003;49382;-25.924;28.194;2022-07-22T15:01:44;13;13;
40947;PMS5003;49382;-25.924;28.194;2022-07-22T15:04:10;11;11;
40947;PMS5003;49382;-25.924;28.194;2022-07-22T15:06:35;12;12;
40947;PMS5003;49382;-25.924;28.194;2022-07-22T15:09:00;14;14;
40947;PMS5003;49382;-25.924;28.194;2022-07-22T15:11:25;15;14;
40947;PMS5003;49382;-25.924;28.194;2022-07-22T15:13:50;13;13;
40947;PMS5003;49382;-25.924;28.194;2022-07-22T15:16:16;15;14;
40947;PMS5003;49382;-25.924;28.194;2022-07-22T15:18:41;15;15;
40947;PMS5003;49382;-25.924;28.194;2022-07-22T15:21:06;15;15;
40947;PMS5003;49382;-25.924;28.194;2022-07-22T15:23:31;15;15;
40947;PMS5003;49382;-25.924;28.194;2022-07-22T15:25:57;17;17;
40947;PMS5003;49382;-25.924;28.194;2022-07-22T15:28:21;15;15;
40947;PMS5003;49382;-25.924;28.194;2022-07-22T15:30:46;15;15;
40947;PMS5003;49382;-25.924;28.194;2022-07-22T15:33:11;16;16;
40947;PMS5003;49382;-25.924;28.194;2022-07-22T15:35:36;17;16;
40947;PMS5003;49382;-25.924;28.194;2022-07-22T15:38:02;19;19;
40947;PMS5003;49382;-25.924;28.194;2022-07-22T15:40:26;16;16;
40947;PMS5003;49382;-25.924;28.194;2022-07-22T15:42:52;15;15;
40947;PMS5003;49382;-25.924;28.194;2022-07-22T15:45:18;16;16;
40947;PMS5003;49382;-25.924;28.194;2022-07-22T15:47:43;17;15;
40947;PMS5003;49382;-25.924;28.194;2022-07-22T15:50:08;14;14;
40947;PMS5003;49382;-25.924;28.194;2022-07-22T15:52:33;19;19;
40947;PMS5003;49382;-25.924;28.194;2022-07-22T15:54:58;20;20;
40947;PMS5003;49382;-25.924;28.194;2022-07-22T15:57:24;25;25;
40947;PMS5003;49382;-25.924;28.194;2022-07-22T15:59:49;27;27;
40947;PMS5003;49382;-25.924;28.194;2022-07-22T16:02:14;24;24;
40947;PMS5003;49382;-25.924;28.194;2022-07-22T16:04:40;27;26;
40947;PMS5003;49382;-25.924;28.194;2022-07-22T16:07:05;26;26;
40947;PMS5003;49382;-25.924;28.194;2022-07-22T16:09:31;26;26;
40947;PMS5003;49382;-25.924;28.194;2022-07-22T16:11:56;30;30;
40947;PMS5003;49382;-25.924;28.194;2022-07-22T16:14:22;30;30;